sensor_id;sensor_type;location;lat;lon;timestamp;P1;durP1;ratioP1;P2;durP2;ratioP2
13345;SDS011;6742;48.036;15.780;2023-05-10T00:00:04;3.17;;;2.20;;
13345;SDS011;6742;48.036;15.780;2023-05-10T00:02:32;2.42;;;2.10;;
13345;SDS011;6742;48.036;15.780;2023-05-10T00:04:59;2.10;;;1.90;;
13345;SDS011;6742;48.036;15.780;2023-05-10T00:07:26;2.10;;;1.83;;
13345;SDS011;6742;48.036;15.780;2023-05-10T00:09:52;2.50;;;2.30;;
13345;SDS011;6742;48.036;15.780;2023-05-10T00:12:19;3.53;;;2.28;;
13345;SDS011;6742;48.036;15.780;2023-05-10T00:14:46;3.60;;;2.30;;
13345;SDS011;6742;48.036;15.780;2023-05-10T00:17:15;2.08;;;1.88;;
13345;SDS011;6742;48.036;15.780;2023-05-10T00:19:41;2.28;;;2.00;;
13345;SDS011;6742;48.036;15.780;2023-05-10T00:22:08;2.35;;;2.15;;
13345;SDS011;6742;48.036;15.780;2023-05-10T00:24:35;2.40;;;2.20;;
13345;SDS011;6742;48.036;15.780;2023-05-10T00:27:02;2.28;;;1.80;;
13345;SDS011;6742;48.036;15.780;2023-05-10T00:29:30;2.25;;;2.00;;
13345;SDS011;6742;48.036;15.780;2023-05-10T00:31:58;2.20;;;2.00;;
13345;SDS011;6742;48.036;15.780;2023-05-10T00:34:27;2.28;;;1.90;;
13345;SDS011;6742;48.036;15.780;2023-05-10T00:36:53;2.65;;;1.90;;
13345;SDS011;6742;48.036;15.780;2023-05-10T00:39:21;2.00;;;1.80;;
13345;SDS011;6742;48.036;15.780;2023-05-10T00:41:51;3.25;;;2.00;;
13345;SDS011;6742;48.036;15.780;2023-05-10T00:44:18;3.63;;;2.00;;
13345;SDS011;6742;48.036;15.780;2023-05-10T00:46:45;2.55;;;2.30;;
13345;SDS011;6742;48.036;15.780;2023-05-10T00:49:13;1.83;;;1.73;;
13345;SDS011;6742;48.036;15.780;2023-05-10T00:51:41;2.47;;;2.28;;
13345;SDS011;6742;48.036;15.780;2023-05-10T00:54:09;4.28;;;2.30;;
13345;SDS011;6742;48.036;15.780;2023-05-10T00:56:38;3.15;;;1.83;;
13345;SDS011;6742;48.036;15.780;2023-05-10T00:59:06;3.08;;;2.42;;
13345;SDS011;6742;48.036;15.780;2023-05-10T01:01:34;3.05;;;2.05;;
13345;SDS011;6742;48.036;15.780;2023-05-10T01:04:02;3.03;;;2.03;;
13345;SDS011;6742;48.036;15.780;2023-05-10T01:06:29;2.30;;;2.10;;
13345;SDS011;6742;48.036;15.780;2023-05-10T01:08:58;2.20;;;2.00;;
13345;SDS011;6742;48.036;15.780;2023-05-10T01:11:25;3.72;;;2.30;;
13345;SDS011;6742;48.036;15.780;2023-05-10T01:13:54;2.97;;;2.10;;
13345;SDS011;6742;48.036;15.780;2023-05-10T01:16:22;3.03;;;2.00;;
13345;SDS011;6742;48.036;15.780;2023-05-10T01:18:50;2.33;;;2.00;;
13345;SDS011;6742;48.036;15.780;2023-05-10T01:21:22;2.30;;;2.00;;
13345;SDS011;6742;48.036;15.780;2023-05-10T01:24:08;3.28;;;2.10;;
13345;SDS011;6742;48.036;15.780;2023-05-10T01:26:57;2.80;;;2.08;;
13345;SDS011;6742;48.036;15.780;2023-05-10T01:32:33;2.70;;;2.03;;
13345;SDS011;6742;48.036;15.780;2023-05-10T01:35:06;2.17;;;1.98;;
13345;SDS011;6742;48.036;15.780;2023-05-10T01:37:41;2.13;;;1.92;;
13345;SDS011;6742;48.036;15.780;2023-05-10T01:40:14;2.28;;;2.08;;
13345;SDS011;6742;48.036;15.780;2023-05-10T01:42:50;2.28;;;2.08;;
13345;SDS011;6742;48.036;15.780;2023-05-10T01:45:29;3.47;;;2.17;;
13345;SDS011;6742;48.036;15.780;2023-05-10T01:48:04;2.15;;;1.95;;
13345;SDS011;6742;48.036;15.780;2023-05-10T01:50:32;2.50;;;2.00;;
13345;SDS011;6742;48.036;15.780;2023-05-10T01:53:02;3.92;;;2.15;;
13345;SDS011;6742;48.036;15.780;2023-05-10T01:55:33;2.13;;;1.80;;
13345;SDS011;6742;48.036;15.780;2023-05-10T01:58:05;2.40;;;2.10;;
13345;SDS011;6742;48.036;15.780;2023-05-10T02:00:35;3.63;;;2.20;;
13345;SDS011;6742;48.036;15.780;2023-05-10T02:03:07;2.78;;;1.90;;
13345;SDS011;6742;48.036;15.780;2023-05-10T02:05:36;2.80;;;2.38;;
13345;SDS011;6742;48.036;15.780;2023-05-10T02:08:05;2.97;;;2.13;;
13345;SDS011;6742;48.036;15.780;2023-05-10T02:10:34;2.08;;;1.88;;
13345;SDS011;6742;48.036;15.780;2023-05-10T02:13:02;2.20;;;2.00;;
13345;SDS011;6742;48.036;15.780;2023-05-10T02:15:32;2.28;;;2.08;;
13345;SDS011;6742;48.036;15.780;2023-05-10T02:18:00;2.00;;;1.80;;
13345;SDS011;6742;48.036;15.780;2023-05-10T02:20:32;2.55;;;1.98;;
13345;SDS011;6742;48.036;15.780;2023-05-10T02:23:00;3.05;;;2.10;;
13345;SDS011;6742;48.036;15.780;2023-05-10T02:25:29;2.40;;;2.17;;
13345;SDS011;6742;48.036;15.780;2023-05-10T02:27:57;3.58;;;2.20;;
13345;SDS011;6742;48.036;15.780;2023-05-10T02:30:28;2.38;;;1.90;;
13345;SDS011;6742;48.036;15.780;2023-05-10T02:32:57;2.30;;;2.00;;
13345;SDS011;6742;48.036;15.780;2023-05-10T02:35:25;2.85;;;1.92;;
13345;SDS011;6742;48.036;15.780;2023-05-10T02:37:54;3.65;;;1.90;;
13345;SDS011;6742;48.036;15.780;2023-05-10T02:40:24;2.33;;;2.13;;
13345;SDS011;6742;48.036;15.780;2023-05-10T02:42:54;2.60;;;1.95;;
13345;SDS011;6742;48.036;15.780;2023-05-10T02:45:24;2.13;;;1.92;;
13345;SDS011;6742;48.036;15.780;2023-05-10T02:47:55;2.00;;;1.70;;
13345;SDS011;6742;48.036;15.780;2023-05-10T02:50:22;2.15;;;1.95;;
13345;SDS011;6742;48.036;15.780;2023-05-10T02:52:55;1.95;;;1.80;;
13345;SDS011;6742;48.036;15.780;2023-05-10T02:55:26;3.10;;;2.20;;
13345;SDS011;6742;48.036;15.780;2023-05-10T02:57:59;2.40;;;2.20;;
13345;SDS011;6742;48.036;15.780;2023-05-10T03:00:28;2.13;;;1.77;;
13345;SDS011;6742;48.036;15.780;2023-05-10T03:02:57;2.20;;;2.00;;
13345;SDS011;6742;48.036;15.780;2023-05-10T03:05:24;2.25;;;2.05;;
13345;SDS011;6742;48.036;15.780;2023-05-10T03:07:51;2.15;;;1.95;;
13345;SDS011;6742;48.036;15.780;2023-05-10T03:10:20;2.58;;;2.10;;
13345;SDS011;6742;48.036;15.780;2023-05-10T03:12:55;2.28;;;1.80;;
13345;SDS011;6742;48.036;15.780;2023-05-10T03:15:33;2.83;;;2.10;;
13345;SDS011;6742;48.036;15.780;2023-05-10T03:18:06;2.05;;;1.85;;
13345;SDS011;6742;48.036;15.780;2023-05-10T03:20:36;2.17;;;1.98;;
13345;SDS011;6742;48.036;15.780;2023-05-10T03:23:11;3.15;;;2.10;;
13345;SDS011;6742;48.036;15.780;2023-05-10T03:25:41;6.22;;;2.20;;
13345;SDS011;6742;48.036;15.780;2023-05-10T03:28:09;3.97;;;2.13;;
13345;SDS011;6742;48.036;15.780;2023-05-10T03:30:37;5.78;;;2.38;;
13345;SDS011;6742;48.036;15.780;2023-05-10T03:33:05;4.20;;;2.08;;
13345;SDS011;6742;48.036;15.780;2023-05-10T03:35:33;7.00;;;2.33;;
13345;SDS011;6742;48.036;15.780;2023-05-10T03:38:00;4.43;;;2.30;;
13345;SDS011;6742;48.036;15.780;2023-05-10T03:40:26;4.85;;;2.28;;
13345;SDS011;6742;48.036;15.780;2023-05-10T03:42:58;2.88;;;2.30;;
13345;SDS011;6742;48.036;15.780;2023-05-10T03:45:25;2.85;;;2.33;;
13345;SDS011;6742;48.036;15.780;2023-05-10T03:47:52;3.20;;;2.13;;
13345;SDS011;6742;48.036;15.780;2023-05-10T03:50:20;2.40;;;2.20;;
13345;SDS011;6742;48.036;15.780;2023-05-10T03:52:47;2.40;;;2.20;;
13345;SDS011;6742;48.036;15.780;2023-05-10T03:55:14;6.30;;;2.40;;
13345;SDS011;6742;48.036;15.780;2023-05-10T03:57:42;4.82;;;2.33;;
13345;SDS011;6742;48.036;15.780;2023-05-10T04:00:11;3.30;;;1.92;;
13345;SDS011;6742;48.036;15.780;2023-05-10T04:02:39;2.47;;;1.90;;
13345;SDS011;6742;48.036;15.780;2023-05-10T04:05:06;3.28;;;2.45;;
13345;SDS011;6742;48.036;15.780;2023-05-10T04:07:33;5.40;;;4.90;;
13345;SDS011;6742;48.036;15.780;2023-05-10T04:10:01;3.00;;;2.60;;
13345;SDS011;6742;48.036;15.780;2023-05-10T04:12:28;4.13;;;2.30;;
13345;SDS011;6742;48.036;15.780;2023-05-10T04:14:55;2.95;;;2.30;;
13345;SDS011;6742;48.036;15.780;2023-05-10T04:17:23;3.92;;;2.28;;
13345;SDS011;6742;48.036;15.780;2023-05-10T04:19:50;2.55;;;2.25;;
13345;SDS011;6742;48.036;15.780;2023-05-10T04:22:19;2.67;;;1.90;;
13345;SDS011;6742;48.036;15.780;2023-05-10T04:24:46;3.58;;;2.13;;
13345;SDS011;6742;48.036;15.780;2023-05-10T04:27:13;2.70;;;2.17;;
13345;SDS011;6742;48.036;15.780;2023-05-10T04:29:40;2.67;;;2.00;;
13345;SDS011;6742;48.036;15.780;2023-05-10T04:32:07;3.83;;;2.30;;
13345;SDS011;6742;48.036;15.780;2023-05-10T04:34:37;4.30;;;2.42;;
13345;SDS011;6742;48.036;15.780;2023-05-10T04:37:04;3.60;;;2.28;;
13345;SDS011;6742;48.036;15.780;2023-05-10T04:39:32;3.30;;;2.13;;
13345;SDS011;6742;48.036;15.780;2023-05-10T04:42:00;3.53;;;2.65;;
13345;SDS011;6742;48.036;15.780;2023-05-10T04:44:27;5.30;;;3.38;;
13345;SDS011;6742;48.036;15.780;2023-05-10T04:46:54;4.07;;;2.85;;
13345;SDS011;6742;48.036;15.780;2023-05-10T04:49:21;3.35;;;2.60;;
13345;SDS011;6742;48.036;15.780;2023-05-10T04:51:50;2.40;;;2.00;;
13345;SDS011;6742;48.036;15.780;2023-05-10T04:54:17;1.75;;;1.55;;
13345;SDS011;6742;48.036;15.780;2023-05-10T04:56:44;2.72;;;1.85;;
13345;SDS011;6742;48.036;15.780;2023-05-10T04:59:11;3.03;;;1.85;;
13345;SDS011;6742;48.036;15.780;2023-05-10T05:01:38;2.10;;;1.50;;
13345;SDS011;6742;48.036;15.780;2023-05-10T05:04:07;1.70;;;1.60;;
13345;SDS011;6742;48.036;15.780;2023-05-10T05:06:33;1.73;;;1.63;;
13345;SDS011;6742;48.036;15.780;2023-05-10T05:09:02;2.60;;;1.83;;
13345;SDS011;6742;48.036;15.780;2023-05-10T05:11:29;1.90;;;1.70;;
13345;SDS011;6742;48.036;15.780;2023-05-10T05:13:56;1.98;;;1.65;;
13345;SDS011;6742;48.036;15.780;2023-05-10T05:16:24;1.92;;;1.63;;
13345;SDS011;6742;48.036;15.780;2023-05-10T05:18:51;2.72;;;1.70;;
13345;SDS011;6742;48.036;15.780;2023-05-10T05:21:19;1.70;;;1.40;;
13345;SDS011;6742;48.036;15.780;2023-05-10T05:23:46;1.70;;;1.60;;
13345;SDS011;6742;48.036;15.780;2023-05-10T05:26:14;1.70;;;1.60;;
13345;SDS011;6742;48.036;15.780;2023-05-10T05:28:41;2.65;;;1.80;;
13345;SDS011;6742;48.036;15.780;2023-05-10T05:31:09;2.22;;;1.35;;
13345;SDS011;6742;48.036;15.780;2023-05-10T05:33:35;1.90;;;1.50;;
13345;SDS011;6742;48.036;15.780;2023-05-10T05:36:03;2.17;;;1.50;;
13345;SDS011;6742;48.036;15.780;2023-05-10T05:38:30;1.98;;;1.73;;
13345;SDS011;6742;48.036;15.780;2023-05-10T05:40:58;1.98;;;1.60;;
13345;SDS011;6742;48.036;15.780;2023-05-10T05:43:26;2.03;;;1.40;;
13345;SDS011;6742;48.036;15.780;2023-05-10T05:45:53;1.77;;;1.48;;
13345;SDS011;6742;48.036;15.780;2023-05-10T05:48:21;2.50;;;1.40;;
13345;SDS011;6742;48.036;15.780;2023-05-10T05:50:47;2.90;;;1.50;;
13345;SDS011;6742;48.036;15.780;2023-05-10T05:53:15;1.73;;;1.52;;
13345;SDS011;6742;48.036;15.780;2023-05-10T05:55:50;2.38;;;1.30;;
13345;SDS011;6742;48.036;15.780;2023-05-10T05:58:18;2.75;;;1.40;;
13345;SDS011;6742;48.036;15.780;2023-05-10T06:00:47;1.75;;;1.50;;
13345;SDS011;6742;48.036;15.780;2023-05-10T06:03:14;2.50;;;1.60;;
13345;SDS011;6742;48.036;15.780;2023-05-10T06:05:41;2.20;;;1.60;;
13345;SDS011;6742;48.036;15.780;2023-05-10T06:08:08;1.35;;;1.25;;
13345;SDS011;6742;48.036;15.780;2023-05-10T06:10:34;1.50;;;1.40;;
13345;SDS011;6742;48.036;15.780;2023-05-10T06:13:01;1.52;;;1.42;;
13345;SDS011;6742;48.036;15.780;2023-05-10T06:15:28;1.65;;;1.40;;
13345;SDS011;6742;48.036;15.780;2023-05-10T06:17:57;1.50;;;1.40;;
13345;SDS011;6742;48.036;15.780;2023-05-10T06:20:24;1.40;;;1.30;;
13345;SDS011;6742;48.036;15.780;2023-05-10T06:22:51;2.45;;;1.30;;
13345;SDS011;6742;48.036;15.780;2023-05-10T06:25:18;1.77;;;1.30;;
13345;SDS011;6742;48.036;15.780;2023-05-10T06:27:45;2.33;;;1.30;;
13345;SDS011;6742;48.036;15.780;2023-05-10T06:30:12;1.58;;;1.48;;
13345;SDS011;6742;48.036;15.780;2023-05-10T06:32:40;1.75;;;1.30;;
13345;SDS011;6742;48.036;15.780;2023-05-10T06:35:10;2.35;;;1.30;;
13345;SDS011;6742;48.036;15.780;2023-05-10T06:37:37;3.20;;;1.70;;
13345;SDS011;6742;48.036;15.780;2023-05-10T06:40:05;2.10;;;1.40;;
13345;SDS011;6742;48.036;15.780;2023-05-10T06:42:33;1.63;;;1.30;;
13345;SDS011;6742;48.036;15.780;2023-05-10T06:45:00;4.60;;;1.40;;
13345;SDS011;6742;48.036;15.780;2023-05-10T06:47:27;1.38;;;1.27;;
13345;SDS011;6742;48.036;15.780;2023-05-10T06:49:54;2.50;;;1.40;;
13345;SDS011;6742;48.036;15.780;2023-05-10T06:52:22;3.03;;;1.30;;
13345;SDS011;6742;48.036;15.780;2023-05-10T06:54:49;1.67;;;1.30;;
13345;SDS011;6742;48.036;15.780;2023-05-10T06:57:16;2.15;;;1.33;;
13345;SDS011;6742;48.036;15.780;2023-05-10T06:59:44;2.38;;;1.30;;
13345;SDS011;6742;48.036;15.780;2023-05-10T07:02:11;4.72;;;1.60;;
13345;SDS011;6742;48.036;15.780;2023-05-10T07:04:39;2.22;;;1.30;;
13345;SDS011;6742;48.036;15.780;2023-05-10T07:07:06;3.25;;;1.23;;
13345;SDS011;6742;48.036;15.780;2023-05-10T07:09:35;1.40;;;1.27;;
13345;SDS011;6742;48.036;15.780;2023-05-10T07:12:03;1.50;;;1.40;;
13345;SDS011;6742;48.036;15.780;2023-05-10T07:14:30;1.58;;;1.48;;
13345;SDS011;6742;48.036;15.780;2023-05-10T07:16:57;2.28;;;1.95;;
13345;SDS011;6742;48.036;15.780;2023-05-10T07:19:24;3.13;;;1.45;;
13345;SDS011;6742;48.036;15.780;2023-05-10T07:21:51;2.53;;;1.58;;
13345;SDS011;6742;48.036;15.780;2023-05-10T07:24:18;3.00;;;1.60;;
13345;SDS011;6742;48.036;15.780;2023-05-10T07:26:46;4.07;;;1.48;;
13345;SDS011;6742;48.036;15.780;2023-05-10T07:29:13;1.63;;;1.40;;
13345;SDS011;6742;48.036;15.780;2023-05-10T07:31:40;2.65;;;1.48;;
13345;SDS011;6742;48.036;15.780;2023-05-10T07:34:08;1.92;;;1.40;;
13345;SDS011;6742;48.036;15.780;2023-05-10T07:36:34;1.52;;;1.30;;
13345;SDS011;6742;48.036;15.780;2023-05-10T07:39:03;1.65;;;1.38;;
13345;SDS011;6742;48.036;15.780;2023-05-10T07:41:30;2.28;;;1.30;;
13345;SDS011;6742;48.036;15.780;2023-05-10T07:43:59;1.90;;;1.40;;
13345;SDS011;6742;48.036;15.780;2023-05-10T07:46:26;2.00;;;1.50;;
13345;SDS011;6742;48.036;15.780;2023-05-10T07:48:53;2.22;;;1.50;;
13345;SDS011;6742;48.036;15.780;2023-05-10T07:51:20;1.50;;;1.40;;
13345;SDS011;6742;48.036;15.780;2023-05-10T07:53:47;1.52;;;1.42;;
13345;SDS011;6742;48.036;15.780;2023-05-10T07:56:21;1.60;;;1.50;;
13345;SDS011;6742;48.036;15.780;2023-05-10T07:58:52;1.92;;;1.63;;
13345;SDS011;6742;48.036;15.780;2023-05-10T08:01:21;2.65;;;1.33;;
13345;SDS011;6742;48.036;15.780;2023-05-10T08:03:48;2.10;;;1.50;;
13345;SDS011;6742;48.036;15.780;2023-05-10T08:06:16;3.20;;;1.67;;
13345;SDS011;6742;48.036;15.780;2023-05-10T08:08:43;1.77;;;1.58;;
13345;SDS011;6742;48.036;15.780;2023-05-10T08:11:14;2.50;;;1.70;;
13345;SDS011;6742;48.036;15.780;2023-05-10T08:13:41;2.90;;;1.60;;
13345;SDS011;6742;48.036;15.780;2023-05-10T08:16:08;2.15;;;1.50;;
13345;SDS011;6742;48.036;15.780;2023-05-10T08:18:37;4.10;;;1.90;;
13345;SDS011;6742;48.036;15.780;2023-05-10T08:21:04;3.35;;;1.67;;
13345;SDS011;6742;48.036;15.780;2023-05-10T08:23:31;4.50;;;1.60;;
13345;SDS011;6742;48.036;15.780;2023-05-10T08:25:59;2.22;;;1.52;;
13345;SDS011;6742;48.036;15.780;2023-05-10T08:28:26;2.38;;;1.58;;
13345;SDS011;6742;48.036;15.780;2023-05-10T08:30:53;3.08;;;1.70;;
13345;SDS011;6742;48.036;15.780;2023-05-10T08:33:20;2.47;;;1.60;;
13345;SDS011;6742;48.036;15.780;2023-05-10T08:35:48;4.18;;;1.77;;
13345;SDS011;6742;48.036;15.780;2023-05-10T08:38:15;2.35;;;1.75;;
13345;SDS011;6742;48.036;15.780;2023-05-10T08:40:44;2.55;;;1.90;;
13345;SDS011;6742;48.036;15.780;2023-05-10T08:43:12;2.58;;;1.40;;
13345;SDS011;6742;48.036;15.780;2023-05-10T08:45:41;2.00;;;1.70;;
13345;SDS011;6742;48.036;15.780;2023-05-10T08:48:10;2.28;;;1.70;;
13345;SDS011;6742;48.036;15.780;2023-05-10T08:50:38;1.95;;;1.80;;
13345;SDS011;6742;48.036;15.780;2023-05-10T08:53:09;1.60;;;1.50;;
13345;SDS011;6742;48.036;15.780;2023-05-10T08:55:37;1.67;;;1.58;;
13345;SDS011;6742;48.036;15.780;2023-05-10T08:58:05;3.25;;;1.50;;
13345;SDS011;6742;48.036;15.780;2023-05-10T09:00:32;4.43;;;1.60;;
13345;SDS011;6742;48.036;15.780;2023-05-10T09:03:00;2.38;;;1.77;;
13345;SDS011;6742;48.036;15.780;2023-05-10T09:05:27;2.47;;;1.70;;
13345;SDS011;6742;48.036;15.780;2023-05-10T09:07:54;3.85;;;1.70;;
13345;SDS011;6742;48.036;15.780;2023-05-10T09:10:23;3.53;;;1.77;;
13345;SDS011;6742;48.036;15.780;2023-05-10T09:12:53;3.47;;;1.90;;
13345;SDS011;6742;48.036;15.780;2023-05-10T09:15:22;2.78;;;1.60;;
13345;SDS011;6742;48.036;15.780;2023-05-10T09:17:49;2.38;;;1.70;;
13345;SDS011;6742;48.036;15.780;2023-05-10T09:20:20;2.63;;;1.60;;
13345;SDS011;6742;48.036;15.780;2023-05-10T09:22:50;2.30;;;2.10;;
13345;SDS011;6742;48.036;15.780;2023-05-10T09:25:17;1.73;;;1.45;;
13345;SDS011;6742;48.036;15.780;2023-05-10T09:27:46;2.03;;;1.70;;
13345;SDS011;6742;48.036;15.780;2023-05-10T09:30:15;2.25;;;1.60;;
13345;SDS011;6742;48.036;15.780;2023-05-10T09:32:43;2.60;;;1.60;;
13345;SDS011;6742;48.036;15.780;2023-05-10T09:35:11;1.50;;;1.40;;
13345;SDS011;6742;48.036;15.780;2023-05-10T09:37:39;2.00;;;1.52;;
13345;SDS011;6742;48.036;15.780;2023-05-10T09:40:08;2.47;;;1.50;;
13345;SDS011;6742;48.036;15.780;2023-05-10T09:42:38;2.67;;;1.58;;
13345;SDS011;6742;48.036;15.780;2023-05-10T09:45:07;2.75;;;1.50;;
13345;SDS011;6742;48.036;15.780;2023-05-10T09:47:35;2.05;;;1.60;;
13345;SDS011;6742;48.036;15.780;2023-05-10T09:50:02;2.35;;;1.65;;
13345;SDS011;6742;48.036;15.780;2023-05-10T09:52:30;2.42;;;1.58;;
13345;SDS011;6742;48.036;15.780;2023-05-10T09:55:11;1.88;;;1.67;;
13345;SDS011;6742;48.036;15.780;2023-05-10T09:57:38;2.28;;;1.50;;
13345;SDS011;6742;48.036;15.780;2023-05-10T10:00:07;2.90;;;1.60;;
13345;SDS011;6742;48.036;15.780;2023-05-10T10:02:36;2.08;;;1.70;;
13345;SDS011;6742;48.036;15.780;2023-05-10T10:05:03;4.25;;;1.55;;
13345;SDS011;6742;48.036;15.780;2023-05-10T10:07:32;1.63;;;1.48;;
13345;SDS011;6742;48.036;15.780;2023-05-10T10:09:59;2.95;;;1.45;;
13345;SDS011;6742;48.036;15.780;2023-05-10T10:12:27;2.67;;;1.77;;
13345;SDS011;6742;48.036;15.780;2023-05-10T10:14:54;3.10;;;1.63;;
13345;SDS011;6742;48.036;15.780;2023-05-10T10:17:24;2.67;;;1.85;;
13345;SDS011;6742;48.036;15.780;2023-05-10T10:19:53;2.95;;;1.70;;
13345;SDS011;6742;48.036;15.780;2023-05-10T10:22:21;2.10;;;1.70;;
13345;SDS011;6742;48.036;15.780;2023-05-10T10:24:48;2.22;;;1.70;;
13345;SDS011;6742;48.036;15.780;2023-05-10T10:27:19;2.05;;;1.50;;
13345;SDS011;6742;48.036;15.780;2023-05-10T10:29:55;2.75;;;1.60;;
13345;SDS011;6742;48.036;15.780;2023-05-10T10:32:33;2.13;;;1.60;;
13345;SDS011;6742;48.036;15.780;2023-05-10T10:35:14;1.63;;;1.52;;
13345;SDS011;6742;48.036;15.780;2023-05-10T10:37:45;2.05;;;1.83;;
13345;SDS011;6742;48.036;15.780;2023-05-10T10:40:23;2.35;;;2.10;;
13345;SDS011;6742;48.036;15.780;2023-05-10T10:42:54;1.77;;;1.67;;
13345;SDS011;6742;48.036;15.780;2023-05-10T10:45:23;2.10;;;1.90;;
13345;SDS011;6742;48.036;15.780;2023-05-10T10:47:56;2.90;;;1.70;;
13345;SDS011;6742;48.036;15.780;2023-05-10T10:50:48;4.22;;;1.65;;
13345;SDS011;6742;48.036;15.780;2023-05-10T10:53:25;1.92;;;1.80;;
13345;SDS011;6742;48.036;15.780;2023-05-10T10:56:02;2.42;;;1.55;;
13345;SDS011;6742;48.036;15.780;2023-05-10T10:58:32;2.85;;;1.67;;
13345;SDS011;6742;48.036;15.780;2023-05-10T11:01:09;1.67;;;1.58;;
13345;SDS011;6742;48.036;15.780;2023-05-10T11:03:39;3.28;;;1.60;;
13345;SDS011;6742;48.036;15.780;2023-05-10T11:06:06;2.50;;;1.70;;
13345;SDS011;6742;48.036;15.780;2023-05-10T11:08:34;3.45;;;1.70;;
13345;SDS011;6742;48.036;15.780;2023-05-10T11:11:08;2.38;;;1.83;;
13345;SDS011;6742;48.036;15.780;2023-05-10T11:13:38;1.67;;;1.58;;
13345;SDS011;6742;48.036;15.780;2023-05-10T11:16:09;1.98;;;1.77;;
13345;SDS011;6742;48.036;15.780;2023-05-10T11:18:40;2.55;;;1.63;;
13345;SDS011;6742;48.036;15.780;2023-05-10T11:21:15;1.65;;;1.50;;
13345;SDS011;6742;48.036;15.780;2023-05-10T11:23:48;3.42;;;1.70;;
13345;SDS011;6742;48.036;15.780;2023-05-10T11:26:16;1.63;;;1.50;;
13345;SDS011;6742;48.036;15.780;2023-05-10T11:28:48;2.95;;;1.60;;
13345;SDS011;6742;48.036;15.780;2023-05-10T11:31:16;3.72;;;1.70;;
13345;SDS011;6742;48.036;15.780;2023-05-10T11:33:45;4.28;;;1.80;;
13345;SDS011;6742;48.036;15.780;2023-05-10T11:36:13;2.25;;;1.70;;
13345;SDS011;6742;48.036;15.780;2023-05-10T11:38:42;3.28;;;1.60;;
13345;SDS011;6742;48.036;15.780;2023-05-10T11:41:09;1.48;;;1.38;;
13345;SDS011;6742;48.036;15.780;2023-05-10T11:43:37;3.20;;;1.80;;
13345;SDS011;6742;48.036;15.780;2023-05-10T11:46:06;1.85;;;1.50;;
13345;SDS011;6742;48.036;15.780;2023-05-10T11:48:33;2.20;;;1.70;;
13345;SDS011;6742;48.036;15.780;2023-05-10T11:51:02;1.77;;;1.60;;
13345;SDS011;6742;48.036;15.780;2023-05-10T11:53:30;3.10;;;1.70;;
13345;SDS011;6742;48.036;15.780;2023-05-10T11:56:02;1.60;;;1.42;;
13345;SDS011;6742;48.036;15.780;2023-05-10T11:58:30;2.33;;;1.60;;
13345;SDS011;6742;48.036;15.780;2023-05-10T12:00:57;1.60;;;1.50;;
13345;SDS011;6742;48.036;15.780;2023-05-10T12:03:25;1.70;;;1.60;;
13345;SDS011;6742;48.036;15.780;2023-05-10T12:05:52;2.30;;;1.90;;
13345;SDS011;6742;48.036;15.780;2023-05-10T12:08:22;2.05;;;1.85;;
13345;SDS011;6742;48.036;15.780;2023-05-10T12:10:50;1.98;;;1.70;;
13345;SDS011;6742;48.036;15.780;2023-05-10T12:13:17;3.13;;;1.83;;
13345;SDS011;6742;48.036;15.780;2023-05-10T12:15:46;1.60;;;1.50;;
13345;SDS011;6742;48.036;15.780;2023-05-10T12:18:13;4.70;;;1.60;;
13345;SDS011;6742;48.036;15.780;2023-05-10T12:20:41;1.88;;;1.52;;
13345;SDS011;6742;48.036;15.780;2023-05-10T12:23:08;1.90;;;1.75;;
13345;SDS011;6742;48.036;15.780;2023-05-10T12:25:37;2.47;;;1.90;;
13345;SDS011;6742;48.036;15.780;2023-05-10T12:28:05;4.05;;;1.88;;
13345;SDS011;6742;48.036;15.780;2023-05-10T12:30:34;2.80;;;2.00;;
13345;SDS011;6742;48.036;15.780;2023-05-10T12:33:02;3.05;;;1.77;;
13345;SDS011;6742;48.036;15.780;2023-05-10T12:35:38;3.28;;;1.75;;
13345;SDS011;6742;48.036;15.780;2023-05-10T12:40:55;1.95;;;1.80;;
13345;SDS011;6742;48.036;15.780;2023-05-10T12:43:25;1.63;;;1.52;;
13345;SDS011;6742;48.036;15.780;2023-05-10T12:45:55;3.42;;;1.70;;
13345;SDS011;6742;48.036;15.780;2023-05-10T12:48:22;2.53;;;1.92;;
13345;SDS011;6742;48.036;15.780;2023-05-10T12:50:49;3.63;;;1.80;;
13345;SDS011;6742;48.036;15.780;2023-05-10T12:53:16;4.75;;;1.90;;
13345;SDS011;6742;48.036;15.780;2023-05-10T12:55:43;1.90;;;1.70;;
13345;SDS011;6742;48.036;15.780;2023-05-10T12:58:11;2.47;;;1.90;;
13345;SDS011;6742;48.036;15.780;2023-05-10T13:00:38;2.03;;;1.85;;
13345;SDS011;6742;48.036;15.780;2023-05-10T13:03:05;1.90;;;1.65;;
13345;SDS011;6742;48.036;15.780;2023-05-10T13:05:32;2.75;;;1.63;;
13345;SDS011;6742;48.036;15.780;2023-05-10T13:07:59;1.88;;;1.77;;
13345;SDS011;6742;48.036;15.780;2023-05-10T13:10:27;3.83;;;1.90;;
13345;SDS011;6742;48.036;15.780;2023-05-10T13:12:55;6.70;;;2.10;;
13345;SDS011;6742;48.036;15.780;2023-05-10T13:15:23;3.30;;;1.70;;
13345;SDS011;6742;48.036;15.780;2023-05-10T13:17:51;1.90;;;1.80;;
13345;SDS011;6742;48.036;15.780;2023-05-10T13:20:19;1.90;;;1.70;;
13345;SDS011;6742;48.036;15.780;2023-05-10T13:22:46;4.20;;;2.05;;
13345;SDS011;6742;48.036;15.780;2023-05-10T13:25:13;4.95;;;2.05;;
13345;SDS011;6742;48.036;15.780;2023-05-10T13:27:40;3.20;;;1.80;;
13345;SDS011;6742;48.036;15.780;2023-05-10T13:30:07;12.13;;;2.35;;
13345;SDS011;6742;48.036;15.780;2023-05-10T13:32:36;9.27;;;2.72;;
13345;SDS011;6742;48.036;15.780;2023-05-10T13:35:03;2.22;;;1.73;;
13345;SDS011;6742;48.036;15.780;2023-05-10T13:37:31;5.68;;;1.95;;
13345;SDS011;6742;48.036;15.780;2023-05-10T13:40:00;5.80;;;2.17;;
13345;SDS011;6742;48.036;15.780;2023-05-10T13:42:27;12.65;;;6.30;;
13345;SDS011;6742;48.036;15.780;2023-05-10T13:44:54;24.63;;;9.30;;
13345;SDS011;6742;48.036;15.780;2023-05-10T13:47:21;28.75;;;8.18;;
13345;SDS011;6742;48.036;15.780;2023-05-10T13:49:50;42.05;;;14.27;;
13345;SDS011;6742;48.036;15.780;2023-05-10T13:52:16;3.03;;;2.03;;
13345;SDS011;6742;48.036;15.780;2023-05-10T13:54:43;2.03;;;1.70;;
13345;SDS011;6742;48.036;15.780;2023-05-10T13:57:11;5.70;;;2.25;;
13345;SDS011;6742;48.036;15.780;2023-05-10T13:59:39;5.63;;;2.50;;
13345;SDS011;6742;48.036;15.780;2023-05-10T14:02:06;3.47;;;2.50;;
13345;SDS011;6742;48.036;15.780;2023-05-10T14:04:32;8.07;;;3.30;;
13345;SDS011;6742;48.036;15.780;2023-05-10T14:07:01;16.23;;;6.20;;
13345;SDS011;6742;48.036;15.780;2023-05-10T14:09:28;61.38;;;18.77;;
13345;SDS011;6742;48.036;15.780;2023-05-10T14:11:56;89.82;;;19.88;;
13345;SDS011;6742;48.036;15.780;2023-05-10T14:14:22;54.30;;;12.23;;
13345;SDS011;6742;48.036;15.780;2023-05-10T14:16:49;7.95;;;3.08;;
13345;SDS011;6742;48.036;15.780;2023-05-10T14:19:17;9.10;;;3.78;;
13345;SDS011;6742;48.036;15.780;2023-05-10T14:21:44;1.90;;;1.60;;
13345;SDS011;6742;48.036;15.780;2023-05-10T14:24:12;5.40;;;3.47;;
13345;SDS011;6742;48.036;15.780;2023-05-10T14:26:39;35.53;;;9.57;;
13345;SDS011;6742;48.036;15.780;2023-05-10T14:29:06;9.68;;;3.25;;
13345;SDS011;6742;48.036;15.780;2023-05-10T14:31:33;3.20;;;1.50;;
13345;SDS011;6742;48.036;15.780;2023-05-10T14:34:00;9.07;;;2.30;;
13345;SDS011;6742;48.036;15.780;2023-05-10T14:36:28;8.65;;;2.88;;
13345;SDS011;6742;48.036;15.780;2023-05-10T14:38:55;38.03;;;12.23;;
13345;SDS011;6742;48.036;15.780;2023-05-10T14:41:23;22.50;;;8.02;;
13345;SDS011;6742;48.036;15.780;2023-05-10T14:43:50;10.70;;;3.45;;
13345;SDS011;6742;48.036;15.780;2023-05-10T14:46:17;10.40;;;4.05;;
13345;SDS011;6742;48.036;15.780;2023-05-10T14:48:44;4.35;;;2.00;;
13345;SDS011;6742;48.036;15.780;2023-05-10T14:51:11;1.98;;;1.85;;
13345;SDS011;6742;48.036;15.780;2023-05-10T14:53:38;2.95;;;1.70;;
13345;SDS011;6742;48.036;15.780;2023-05-10T14:56:05;2.22;;;1.60;;
13345;SDS011;6742;48.036;15.780;2023-05-10T14:58:34;1.60;;;1.50;;
13345;SDS011;6742;48.036;15.780;2023-05-10T15:01:01;1.60;;;1.42;;